Time;durP1;ratioP1;P1;durP2;ratioP2;P2;SDS_P1;SDS_P2;PMS_P1;PMS_P2;Temp;Humidity;BMP_temperature;BMP_pressure;BME280_temperature;BME280_humidity;BME280_pressure;Samples;Min_cycle;Max_cycle;Signal;HPM_P1;HPM_P2
2021/10/30 00:00:23;;;;;;;6.45;3.95;;;14.50;99.90;;;;;;4119075;28;20587;-74
2021/10/30 00:02:23;;;;;;;5.43;3.53;;;14.50;99.90;;;;;;4121217;28;20066;-73
2021/10/30 00:04:25;;;;;;;4.25;3.47;;;14.50;99.90;;;;;;4104621;28;20070;-73
2021/10/30 00:06:25;;;;;;;5.60;3.40;;;14.50;99.90;;;;;;4114385;28;20045;-74
2021/10/30 00:08:28;;;;;;;7.15;3.25;;;14.40;99.90;;;;;;4115000;28;20113;-73
2021/10/30 00:10:29;;;;;;;5.30;3.28;;;14.50;99.90;;;;;;4123741;28;20971;-73
2021/10/30 00:12:30;;;;;;;5.38;3.35;;;14.50;99.90;;;;;;4122731;28;20041;-73
2021/10/30 00:14:31;;;;;;;5.40;3.15;;;14.40;99.90;;;;;;4122241;28;20041;-73
2021/10/30 00:16:31;;;;;;;5.85;3.20;;;14.40;99.90;;;;;;4119776;28;20046;-73
2021/10/30 00:18:35;;;;;;;6.47;3.50;;;14.40;99.90;;;;;;4123304;28;20045;-73
2021/10/30 00:20:35;;;;;;;4.68;3.20;;;14.30;99.90;;;;;;4122011;28;20040;-73
2021/10/30 00:22:36;;;;;;;6.55;4.15;;;14.30;99.90;;;;;;4126089;28;20069;-73
2021/10/30 00:24:37;;;;;;;8.18;4.50;;;14.30;99.90;;;;;;4126277;28;20050;-73
2021/10/30 00:26:37;;;;;;;5.53;3.80;;;14.30;99.90;;;;;;4117263;28;21046;-73
2021/10/30 00:28:38;;;;;;;4.90;3.75;;;14.20;99.90;;;;;;4124217;28;20038;-73
2021/10/30 00:30:39;;;;;;;6.97;4.53;;;14.30;99.90;;;;;;4114075;28;20042;-73
2021/10/30 00:32:39;;;;;;;7.75;4.53;;;14.20;99.90;;;;;;4130761;28;20042;-74
2021/10/30 00:34:40;;;;;;;8.45;4.80;;;14.30;99.90;;;;;;4127348;28;20035;-73
2021/10/30 00:36:41;;;;;;;8.30;4.97;;;14.30;99.90;;;;;;4122449;28;20026;-73
2021/10/30 00:38:41;;;;;;;7.75;4.63;;;14.20;99.90;;;;;;4123397;28;20042;-73
2021/10/30 00:40:45;;;;;;;9.27;5.18;;;14.20;99.90;;;;;;4119470;28;20062;-73
2021/10/30 00:42:48;;;;;;;9.43;5.18;;;14.20;99.90;;;;;;4125211;28;20523;-73
2021/10/30 00:44:49;;;;;;;9.35;5.72;;;14.10;99.90;;;;;;4121764;28;20030;-73
2021/10/30 00:46:51;;;;;;;10.35;5.57;;;14.10;99.90;;;;;;4123718;28;20567;-73
2021/10/30 00:48:55;;;;;;;13.45;7.43;;;14.10;99.90;;;;;;4122982;28;20034;-73
2021/10/30 00:50:58;;;;;;;11.27;6.57;;;14.00;99.90;;;;;;4122430;28;20031;-73
2021/10/30 00:53:00;;;;;;;12.77;6.82;;;13.90;99.90;;;;;;4109328;28;20393;-73
2021/10/30 00:55:05;;;;;;;9.63;5.55;;;13.90;99.90;;;;;;4120763;28;20076;-73
2021/10/30 00:57:11;;;;;;;8.77;6.38;;;13.90;99.90;;;;;;4119817;28;20046;-73
2021/10/30 00:59:14;;;;;;;10.77;6.63;;;13.90;99.90;;;;;;4128115;28;20121;-73
2021/10/30 01:01:15;;;;;;;8.55;5.60;;;13.80;99.90;;;;;;4115431;28;20038;-73
2021/10/30 01:03:15;;;;;;;10.32;5.97;;;13.80;99.90;;;;;;4139283;28;20042;-73
2021/10/30 01:05:19;;;;;;;11.90;6.43;;;13.80;99.90;;;;;;4123221;28;20489;-73
2021/10/30 01:07:21;;;;;;;11.35;6.57;;;13.80;99.90;;;;;;4121316;28;20360;-73
2021/10/30 01:09:22;;;;;;;10.60;6.07;;;13.80;99.90;;;;;;4124193;28;20133;-73
2021/10/30 01:11:22;;;;;;;10.15;6.50;;;13.80;99.90;;;;;;4124961;28;20082;-73
2021/10/30 01:13:24;;;;;;;11.98;6.10;;;13.80;99.90;;;;;;4135373;28;20084;-73
2021/10/30 01:15:24;;;;;;;18.42;6.97;;;13.80;99.90;;;;;;4125742;28;20484;-73
2021/10/30 01:17:25;;;;;;;11.27;6.32;;;13.80;99.90;;;;;;4122494;28;20070;-73
2021/10/30 01:19:27;;;;;;;12.05;7.05;;;13.70;99.90;;;;;;4123760;28;20042;-73
2021/10/30 01:21:30;;;;;;;9.90;6.60;;;13.70;99.90;;;;;;4125796;28;20116;-73
2021/10/30 01:23:31;;;;;;;9.57;6.60;;;13.60;99.90;;;;;;4124449;28;20042;-73
2021/10/30 01:25:32;;;;;;;10.85;6.53;;;13.70;99.90;;;;;;4122736;28;20546;-73
2021/10/30 01:27:32;;;;;;;14.15;7.38;;;13.60;99.90;;;;;;4121944;28;20042;-73
2021/10/30 01:29:34;;;;;;;11.88;7.32;;;13.60;99.90;;;;;;4127073;28;20080;-73
2021/10/30 01:34:31;;;;;;;11.43;6.45;;;13.60;99.90;;;;;;4124520;28;20405;-73
2021/10/30 01:36:34;;;;;;;12.25;6.63;;;13.60;99.90;;;;;;4130423;28;20129;-73
2021/10/30 01:38:35;;;;;;;8.45;5.75;;;13.60;99.90;;;;;;4125583;28;20070;-73
2021/10/30 01:40:45;;;;;;;10.80;6.63;;;13.60;99.90;;;;;;4135320;28;20322;-73
2021/10/30 01:42:53;;;;;;;8.60;6.63;;;13.50;99.90;;;;;;4127453;28;20038;-73
2021/10/30 01:44:53;;;;;;;15.57;8.05;;;13.60;99.90;;;;;;4125758;28;20107;-73
2021/10/30 01:47:01;;;;;;;12.88;7.55;;;13.60;99.90;;;;;;4126337;28;20043;-73
2021/10/30 01:49:02;;;;;;;11.77;6.97;;;13.60;99.90;;;;;;4123367;28;20034;-73
2021/10/30 01:51:07;;;;;;;11.63;6.85;;;13.50;99.90;;;;;;4124634;28;20401;-73
2021/10/30 01:53:09;;;;;;;11.68;7.03;;;13.40;99.90;;;;;;4122165;28;20040;-73
2021/10/30 01:55:11;;;;;;;11.52;6.60;;;13.40;99.90;;;;;;4122796;28;20048;-73
2021/10/30 01:57:12;;;;;;;13.63;6.90;;;13.40;99.90;;;;;;4124253;28;20042;-73
2021/10/30 01:59:12;;;;;;;10.45;6.78;;;13.40;99.90;;;;;;4126681;28;20036;-73
2021/10/30 02:01:16;;;;;;;10.13;6.15;;;13.30;99.90;;;;;;4123584;28;20109;-73
2021/10/30 02:03:17;;;;;;;9.60;6.18;;;13.30;99.90;;;;;;4129236;28;20104;-73
2021/10/30 02:05:17;;;;;;;8.85;6.22;;;13.30;99.90;;;;;;4123493;28;20165;-73
2021/10/30 02:07:18;;;;;;;10.18;6.63;;;13.40;99.90;;;;;;4110258;28;20846;-73
2021/10/30 02:09:19;;;;;;;11.25;6.05;;;13.30;99.90;;;;;;4119720;28;20133;-73
2021/10/30 02:11:19;;;;;;;10.18;6.18;;;13.30;99.90;;;;;;4112618;28;20486;-73
2021/10/30 02:13:21;;;;;;;10.27;6.00;;;13.30;99.90;;;;;;4124397;28;20045;-73
2021/10/30 02:15:22;;;;;;;8.82;6.22;;;13.30;99.90;;;;;;4119566;28;20033;-73
2021/10/30 02:17:26;;;;;;;9.52;6.32;;;13.30;99.90;;;;;;4123208;28;20089;-73
2021/10/30 02:19:26;;;;;;;8.75;5.47;;;13.30;99.90;;;;;;4113817;28;20545;-73
2021/10/30 02:21:27;;;;;;;10.25;6.50;;;13.30;99.90;;;;;;4122355;28;20035;-73
2021/10/30 02:23:27;;;;;;;10.38;6.43;;;13.30;99.90;;;;;;4111113;28;20042;-73
2021/10/30 02:25:30;;;;;;;10.30;6.25;;;13.30;99.90;;;;;;4122328;28;20632;-73
2021/10/30 02:27:31;;;;;;;9.80;6.15;;;13.30;99.90;;;;;;4120042;28;20057;-73
2021/10/30 02:29:32;;;;;;;9.27;6.22;;;13.30;99.90;;;;;;4124994;28;20042;-73
2021/10/30 02:31:32;;;;;;;9.60;6.30;;;13.20;99.90;;;;;;4125687;28;20414;-73
2021/10/30 02:33:33;;;;;;;12.55;5.65;;;13.20;99.90;;;;;;4122319;28;20029;-73
2021/10/30 02:35:33;;;;;;;8.38;5.68;;;13.30;99.90;;;;;;4132347;28;20105;-73
2021/10/30 02:37:34;;;;;;;10.73;6.55;;;13.20;99.90;;;;;;4125922;28;20534;-73
2021/10/30 02:39:35;;;;;;;9.60;6.07;;;13.30;99.90;;;;;;4125281;28;20450;-73
2021/10/30 02:41:36;;;;;;;11.23;6.30;;;13.30;99.90;;;;;;4125537;28;20034;-73
2021/10/30 02:43:37;;;;;;;8.02;5.75;;;13.30;99.90;;;;;;4127075;28;20687;-73
2021/10/30 02:45:40;;;;;;;8.85;6.10;;;13.30;99.90;;;;;;4127097;28;20049;-73
2021/10/30 02:47:41;;;;;;;8.63;5.60;;;13.30;99.90;;;;;;4122756;28;20077;-73
2021/10/30 02:49:44;;;;;;;8.30;5.40;;;13.30;99.90;;;;;;4125619;28;20524;-73
2021/10/30 02:51:45;;;;;;;7.70;4.72;;;13.30;99.90;;;;;;4118970;28;20577;-73
2021/10/30 02:53:45;;;;;;;8.57;5.60;;;13.30;99.90;;;;;;4123818;28;20035;-73
2021/10/30 02:55:46;;;;;;;9.52;5.88;;;13.30;99.90;;;;;;4121412;28;20190;-73
2021/10/30 02:57:48;;;;;;;9.63;6.03;;;13.30;99.90;;;;;;4132556;28;20474;-73
2021/10/30 02:59:49;;;;;;;10.57;5.95;;;13.40;99.90;;;;;;4122180;28;20533;-73
2021/10/30 03:01:50;;;;;;;9.23;5.80;;;13.30;99.90;;;;;;4122292;28;20042;-73
2021/10/30 03:03:51;;;;;;;14.60;6.72;;;13.30;99.90;;;;;;4128213;28;20037;-73
2021/10/30 03:05:52;;;;;;;9.10;5.60;;;13.20;99.90;;;;;;4128585;28;20041;-73
2021/10/30 03:07:52;;;;;;;8.88;6.15;;;13.20;99.90;;;;;;4116016;28;20089;-73
2021/10/30 03:09:53;;;;;;;9.25;6.25;;;13.20;99.90;;;;;;4118738;28;20042;-73
2021/10/30 03:11:53;;;;;;;8.48;5.35;;;13.20;99.90;;;;;;4120302;28;20052;-73
2021/10/30 03:13:54;;;;;;;8.43;5.80;;;13.20;99.90;;;;;;4125068;28;20348;-73
2021/10/30 03:15:55;;;;;;;11.93;5.28;;;13.20;99.90;;;;;;4094851;28;20042;-73
2021/10/30 03:17:56;;;;;;;7.38;5.15;;;13.20;99.90;;;;;;4130558;28;20030;-73
2021/10/30 03:19:56;;;;;;;7.75;5.03;;;13.20;99.90;;;;;;4111514;28;20054;-73
2021/10/30 03:21:58;;;;;;;9.95;5.68;;;13.10;99.90;;;;;;4129907;28;20029;-73
2021/10/30 03:23:59;;;;;;;8.95;5.25;;;13.10;99.90;;;;;;4121221;28;20284;-73
2021/10/30 03:26:00;;;;;;;8.27;5.03;;;13.20;99.90;;;;;;4135761;28;20042;-73
2021/10/30 03:28:01;;;;;;;8.73;4.70;;;13.20;99.90;;;;;;4115618;28;20092;-73
2021/10/30 03:30:04;;;;;;;7.95;5.03;;;13.20;99.90;;;;;;4130663;28;20374;-73
2021/10/30 03:32:05;;;;;;;7.78;4.60;;;13.20;99.90;;;;;;4122359;28;20040;-73
2021/10/30 03:34:06;;;;;;;8.85;5.20;;;13.20;99.90;;;;;;4122429;28;20137;-73
2021/10/30 03:36:06;;;;;;;8.63;5.22;;;13.10;99.90;;;;;;4122947;28;20046;-73
2021/10/30 03:38:07;;;;;;;8.98;5.50;;;13.10;99.90;;;;;;4123412;28;20047;-73
2021/10/30 03:40:08;;;;;;;8.35;4.97;;;13.10;99.90;;;;;;4120168;28;20375;-73
2021/10/30 03:42:09;;;;;;;7.45;5.05;;;13.10;99.90;;;;;;4125546;28;20042;-73
2021/10/30 03:44:09;;;;;;;7.03;4.82;;;13.10;99.90;;;;;;4122114;28;20039;-73
2021/10/30 03:46:10;;;;;;;9.25;4.88;;;13.10;99.90;;;;;;4122630;28;20448;-73
2021/10/30 03:48:11;;;;;;;7.57;4.78;;;13.10;99.90;;;;;;4121535;28;20426;-73
2021/10/30 03:50:12;;;;;;;8.60;4.90;;;13.20;99.90;;;;;;4121574;28;20034;-73
2021/10/30 03:52:12;;;;;;;6.50;4.78;;;13.20;99.90;;;;;;4123701;28;20366;-73
2021/10/30 03:54:13;;;;;;;7.13;4.97;;;13.20;99.90;;;;;;4120591;28;20061;-73
2021/10/30 03:56:13;;;;;;;10.45;5.25;;;13.20;99.90;;;;;;4124900;28;20046;-73
2021/10/30 03:58:15;;;;;;;8.23;5.07;;;13.10;99.90;;;;;;4120511;28;20030;-73
2021/10/30 04:00:16;;;;;;;9.32;5.00;;;13.10;99.90;;;;;;4114302;28;20143;-73
2021/10/30 04:02:18;;;;;;;8.73;4.88;;;13.10;99.90;;;;;;4124892;28;20501;-73
2021/10/30 04:04:19;;;;;;;8.88;4.68;;;13.10;99.90;;;;;;4116156;28;20038;-73
2021/10/30 04:06:19;;;;;;;6.88;4.30;;;13.10;99.90;;;;;;4125100;28;20531;-73
2021/10/30 04:08:20;;;;;;;8.68;5.18;;;13.10;99.90;;;;;;4118945;28;20456;-73
2021/10/30 04:10:20;;;;;;;8.30;4.85;;;13.10;99.90;;;;;;4138346;28;20038;-73
2021/10/30 04:12:21;;;;;;;8.70;4.85;;;13.10;99.90;;;;;;4128962;28;20429;-73
2021/10/30 04:14:22;;;;;;;8.40;5.30;;;13.10;99.90;;;;;;4126548;28;20030;-73
2021/10/30 04:16:23;;;;;;;11.10;5.18;;;13.20;99.90;;;;;;4128136;28;20042;-73
2021/10/30 04:18:23;;;;;;;9.98;4.85;;;13.10;99.90;;;;;;4120329;28;20046;-73
2021/10/30 04:20:24;;;;;;;7.13;4.22;;;13.10;99.90;;;;;;4127449;28;20080;-73
2021/10/30 04:22:24;;;;;;;5.93;4.30;;;13.10;99.90;;;;;;4127776;28;20088;-73
2021/10/30 04:24:25;;;;;;;8.18;5.20;;;13.10;99.90;;;;;;4115618;28;20363;-74
2021/10/30 04:26:29;;;;;;;7.35;4.60;;;13.10;99.90;;;;;;4122756;28;20057;-74
2021/10/30 04:28:30;;;;;;;8.13;4.75;;;13.10;99.90;;;;;;4128000;28;20054;-73
2021/10/30 04:30:30;;;;;;;7.90;4.60;;;13.10;99.90;;;;;;4123051;28;20030;-73
2021/10/30 04:32:31;;;;;;;8.05;5.30;;;13.10;99.90;;;;;;4125660;28;20526;-74
2021/10/30 04:36:41;;;;;;;7.63;4.95;;;12.90;99.90;;;;;;4128227;28;20033;-74
2021/10/30 04:38:44;;;;;;;8.00;5.00;;;12.90;99.90;;;;;;4129007;28;20025;-75
2021/10/30 04:40:44;;;;;;;9.07;5.53;;;12.90;99.90;;;;;;4124508;28;20037;-74
2021/10/30 04:42:45;;;;;;;7.82;5.18;;;12.90;99.90;;;;;;4123628;28;20070;-74
2021/10/30 04:44:47;;;;;;;7.07;4.82;;;12.80;99.90;;;;;;4123763;28;20045;-74
2021/10/30 04:46:48;;;;;;;9.38;5.10;;;12.80;99.90;;;;;;4128217;28;20031;-74
2021/10/30 04:48:49;;;;;;;10.20;5.32;;;12.80;99.90;;;;;;4122863;28;20034;-74
2021/10/30 04:50:50;;;;;;;8.52;5.13;;;12.70;99.90;;;;;;4126502;28;20230;-74
2021/10/30 04:52:51;;;;;;;8.00;4.70;;;12.70;99.90;;;;;;4118965;28;20482;-74
2021/10/30 04:54:51;;;;;;;9.55;5.30;;;12.70;99.90;;;;;;4125927;28;20031;-77
2021/10/30 04:56:52;;;;;;;8.05;5.13;;;12.60;99.90;;;;;;4122190;28;20037;-77
2021/10/30 04:58:52;;;;;;;6.65;4.68;;;12.60;99.90;;;;;;4122255;28;20048;-77
2021/10/30 05:00:53;;;;;;;7.75;4.53;;;12.60;99.90;;;;;;4124665;28;20034;-77
2021/10/30 05:02:55;;;;;;;10.27;4.93;;;12.60;99.90;;;;;;4130313;28;20041;-77
2021/10/30 05:04:55;;;;;;;7.32;4.68;;;12.50;99.90;;;;;;4124092;28;20066;-77
2021/10/30 05:06:57;;;;;;;7.13;4.97;;;12.50;99.90;;;;;;4122945;28;20296;-77
2021/10/30 05:08:58;;;;;;;7.47;4.57;;;12.50;99.90;;;;;;4131299;28;20183;-77
2021/10/30 05:10:58;;;;;;;10.05;5.30;;;12.50;99.90;;;;;;4124360;28;20034;-77
2021/10/30 05:13:00;;;;;;;9.30;5.18;;;12.40;99.90;;;;;;4117609;28;20063;-77
2021/10/30 05:15:00;;;;;;;8.43;5.15;;;12.40;99.90;;;;;;4126391;28;20043;-77
2021/10/30 05:17:01;;;;;;;7.53;5.20;;;12.40;99.90;;;;;;4127890;28;20553;-77
2021/10/30 05:19:02;;;;;;;9.45;5.60;;;12.40;99.90;;;;;;4122347;28;20479;-77
2021/10/30 05:21:02;;;;;;;7.03;4.63;;;12.40;99.90;;;;;;4123979;28;20027;-77
2021/10/30 05:23:03;;;;;;;8.82;5.38;;;12.40;99.90;;;;;;4121521;28;20193;-77
2021/10/30 05:25:04;;;;;;;9.82;5.55;;;12.40;99.90;;;;;;4105805;28;20074;-78
2021/10/30 05:27:06;;;;;;;11.70;5.63;;;12.40;99.90;;;;;;4124039;28;20344;-77
2021/10/30 05:29:07;;;;;;;9.77;5.35;;;12.40;99.90;;;;;;4125999;28;20431;-77
2021/10/30 05:31:07;;;;;;;11.23;6.18;;;12.50;99.90;;;;;;4124516;28;20065;-77
2021/10/30 05:33:08;;;;;;;11.07;6.30;;;12.40;99.90;;;;;;4126952;28;20026;-78
2021/10/30 05:35:09;;;;;;;9.98;5.90;;;12.40;99.90;;;;;;4126554;28;20048;-77
2021/10/30 05:37:09;;;;;;;11.45;6.25;;;12.40;99.90;;;;;;4121739;28;20027;-77
2021/10/30 05:39:15;;;;;;;13.25;5.95;;;12.40;99.90;;;;;;4126441;28;20035;-78
2021/10/30 05:41:17;;;;;;;13.30;7.03;;;12.50;99.90;;;;;;4126616;28;20058;-77
2021/10/30 05:43:19;;;;;;;12.23;7.37;;;12.30;99.90;;;;;;4130974;28;20026;-77
2021/10/30 05:45:20;;;;;;;12.52;6.32;;;12.30;99.90;;;;;;4130008;28;20038;-77
2021/10/30 05:47:21;;;;;;;8.82;5.78;;;12.30;99.90;;;;;;4124034;28;20521;-77
2021/10/30 05:49:23;;;;;;;12.80;7.70;;;12.30;99.90;;;;;;4126572;28;20026;-77
2021/10/30 05:51:24;;;;;;;14.68;7.53;;;12.30;99.90;;;;;;4108076;28;20031;-77
2021/10/30 05:53:24;;;;;;;10.60;6.47;;;12.30;99.90;;;;;;4121812;28;20121;-77
2021/10/30 05:55:25;;;;;;;13.90;6.40;;;12.20;99.90;;;;;;4126837;28;20049;-77
2021/10/30 05:57:25;;;;;;;14.57;7.00;;;12.20;99.90;;;;;;4123652;28;20508;-77
2021/10/30 05:59:27;;;;;;;9.82;6.72;;;12.20;99.90;;;;;;4126392;28;20053;-77
2021/10/30 06:01:28;;;;;;;11.23;6.33;;;12.20;99.90;;;;;;4128284;28;20046;-77
2021/10/30 06:03:29;;;;;;;13.60;6.88;;;12.20;99.90;;;;;;4128608;28;20281;-77
2021/10/30 06:05:29;;;;;;;10.05;6.13;;;12.20;99.90;;;;;;4134830;28;20483;-77
2021/10/30 06:07:30;;;;;;;12.15;5.50;;;12.20;99.90;;;;;;4128814;28;20097;-77
2021/10/30 06:09:30;;;;;;;9.18;5.63;;;12.20;99.90;;;;;;4124132;28;20041;-77
2021/10/30 06:11:31;;;;;;;7.55;5.22;;;12.20;99.90;;;;;;4108595;28;20035;-77
2021/10/30 06:13:32;;;;;;;10.73;5.70;;;12.20;99.90;;;;;;4111915;28;20031;-79
2021/10/30 06:15:32;;;;;;;7.53;4.88;;;12.20;99.90;;;;;;4130751;28;20407;-78
2021/10/30 06:17:33;;;;;;;8.52;5.40;;;12.20;99.90;;;;;;4133083;28;20092;-78
2021/10/30 06:19:34;;;;;;;7.85;5.60;;;12.20;99.90;;;;;;4129290;28;20030;-79
2021/10/30 06:21:35;;;;;;;7.43;4.60;;;12.20;99.90;;;;;;4126333;28;20116;-78
2021/10/30 06:23:36;;;;;;;6.95;4.95;;;12.20;99.90;;;;;;4126840;28;20133;-78
2021/10/30 06:25:40;;;;;;;7.70;5.00;;;12.30;99.90;;;;;;4130193;28;20092;-78
2021/10/30 06:27:41;;;;;;;8.32;4.80;;;12.20;99.90;;;;;;4115892;28;20031;-78
2021/10/30 06:29:41;;;;;;;10.27;5.70;;;12.30;99.90;;;;;;4133437;28;20062;-79
2021/10/30 06:31:42;;;;;;;8.30;5.05;;;12.30;99.90;;;;;;4124858;28;20046;-78
2021/10/30 06:33:42;;;;;;;10.00;4.65;;;12.30;99.90;;;;;;4126617;28;20406;-79
2021/10/30 06:35:43;;;;;;;10.73;5.65;;;12.30;99.90;;;;;;4126584;28;20061;-79
2021/10/30 06:37:44;;;;;;;9.23;4.88;;;12.30;99.90;;;;;;4106780;28;20097;-78
2021/10/30 06:39:45;;;;;;;11.15;5.10;;;12.30;99.90;;;;;;4123112;28;20054;-78
2021/10/30 06:41:47;;;;;;;8.05;5.50;;;12.20;99.90;;;;;;4125733;28;20038;-78
2021/10/30 06:43:48;;;;;;;;;;;12.30;99.90;;;;;;4127979;28;20231;-78
2021/10/30 06:45:49;;;;;;;8.13;5.30;;;12.30;99.90;;;;;;4128450;28;19944;-78
2021/10/30 06:47:50;;;;;;;7.18;4.82;;;12.30;99.90;;;;;;4114648;28;20406;-78
2021/10/30 06:49:53;;;;;;;7.50;4.85;;;12.30;99.90;;;;;;4130930;28;20042;-78
2021/10/30 06:51:53;;;;;;;7.85;5.22;;;12.30;99.90;;;;;;4125089;28;20576;-78
2021/10/30 06:53:54;;;;;;;6.90;4.45;;;12.30;99.90;;;;;;4129784;28;20038;-78
2021/10/30 06:55:58;;;;;;;8.40;5.10;;;12.30;99.90;;;;;;4127679;28;20105;-77
2021/10/30 06:58:00;;;;;;;10.43;5.45;;;12.30;99.90;;;;;;4129334;28;20042;-78
2021/10/30 07:00:03;;;;;;;6.50;4.63;;;12.30;99.90;;;;;;4124107;28;20046;-77
2021/10/30 07:02:04;;;;;;;8.80;4.90;;;12.20;99.90;;;;;;4124675;28;20106;-77
2021/10/30 07:04:06;;;;;;;11.57;5.22;;;12.20;99.90;;;;;;4109054;28;21092;-78
2021/10/30 07:06:06;;;;;;;10.15;5.30;;;12.30;99.90;;;;;;4127944;28;20097;-77
2021/10/30 07:08:08;;;;;;;7.25;4.85;;;12.30;99.90;;;;;;4127015;28;20141;-77
2021/10/30 07:10:09;;;;;;;8.82;4.93;;;12.30;99.90;;;;;;4127324;28;20045;-77
2021/10/30 07:12:10;;;;;;;6.43;4.53;;;12.20;99.90;;;;;;4122486;28;20493;-77
2021/10/30 07:14:12;;;;;;;8.10;4.75;;;12.30;99.90;;;;;;4122700;28;20038;-77
2021/10/30 07:16:15;;;;;;;7.20;5.00;;;12.30;99.90;;;;;;4119228;28;20041;-77
2021/10/30 07:18:16;;;;;;;6.93;4.28;;;12.20;99.90;;;;;;4120428;28;20046;-77
2021/10/30 07:20:16;;;;;;;6.85;4.82;;;12.30;99.90;;;;;;4114833;28;20041;-77
2021/10/30 07:22:17;;;;;;;7.70;5.05;;;12.30;99.90;;;;;;4120368;28;20035;-77
2021/10/30 07:24:18;;;;;;;6.80;4.70;;;12.30;99.90;;;;;;4117139;28;20038;-76
2021/10/30 07:26:18;;;;;;;8.93;5.18;;;12.30;99.90;;;;;;4119986;28;20144;-77
2021/10/30 07:28:19;;;;;;;8.65;4.55;;;12.30;99.90;;;;;;4122686;28;20037;-76
2021/10/30 07:30:20;;;;;;;9.90;5.03;;;12.30;99.90;;;;;;4118712;28;20073;-74
2021/10/30 07:32:21;;;;;;;7.22;4.28;;;12.30;99.90;;;;;;4117717;28;20100;-74
2021/10/30 07:34:21;;;;;;;8.02;4.07;;;12.30;99.90;;;;;;4117918;28;20046;-73
2021/10/30 07:36:22;;;;;;;9.45;5.40;;;12.40;99.90;;;;;;4115403;28;20046;-73
2021/10/30 07:38:23;;;;;;;9.02;4.88;;;12.40;99.90;;;;;;4119525;28;20050;-73
2021/10/30 07:40:24;;;;;;;9.25;5.18;;;12.40;99.90;;;;;;4120302;28;20041;-73
2021/10/30 07:42:25;;;;;;;9.32;5.80;;;12.40;99.90;;;;;;4118418;28;20109;-73
2021/10/30 07:44:26;;;;;;;10.50;5.20;;;12.40;99.90;;;;;;4117056;28;20045;-73
2021/10/30 07:46:26;;;;;;;6.32;4.15;;;12.50;99.90;;;;;;4119959;28;20035;-74
2021/10/30 07:48:27;;;;;;;9.77;4.55;;;12.50;99.90;;;;;;4117542;28;20418;-74
2021/10/30 07:50:28;;;;;;;8.55;4.72;;;12.50;99.90;;;;;;4121547;28;20085;-74
2021/10/30 07:52:29;;;;;;;9.48;5.50;;;12.50;99.90;;;;;;4121157;28;20030;-74
2021/10/30 07:54:30;;;;;;;7.10;4.75;;;12.50;99.90;;;;;;4119267;28;20038;-74
2021/10/30 07:56:31;;;;;;;8.32;4.78;;;12.50;99.90;;;;;;4118523;28;20034;-73
2021/10/30 07:58:31;;;;;;;14.95;4.70;;;12.50;99.90;;;;;;4118854;28;20533;-74
2021/10/30 08:00:33;;;;;;;10.40;5.00;;;12.50;99.90;;;;;;4120573;28;20117;-73
2021/10/30 08:02:33;;;;;;;7.03;4.45;;;12.50;99.90;;;;;;4121294;28;20160;-73
2021/10/30 08:04:35;;;;;;;8.00;4.75;;;12.50;99.90;;;;;;4119501;28;20546;-74
2021/10/30 08:06:36;;;;;;;10.98;5.43;;;12.50;99.90;;;;;;4121149;28;20073;-74
2021/10/30 08:08:36;;;;;;;12.30;4.60;;;12.50;99.90;;;;;;4118757;28;20042;-74
2021/10/30 08:10:38;;;;;;;10.55;4.85;;;12.50;99.90;;;;;;4119164;28;20076;-74
2021/10/30 08:12:39;;;;;;;8.32;4.93;;;12.60;99.90;;;;;;4122643;28;20062;-74
2021/10/30 08:14:40;;;;;;;7.45;4.95;;;12.50;99.90;;;;;;4120367;28;20482;-73
2021/10/30 08:16:41;;;;;;;5.30;4.00;;;12.50;99.90;;;;;;4118938;28;20081;-73
2021/10/30 08:18:42;;;;;;;8.90;4.93;;;12.60;99.90;;;;;;4120092;28;20050;-73
2021/10/30 08:20:42;;;;;;;9.32;5.55;;;12.60;99.90;;;;;;4119765;28;20041;-73
2021/10/30 08:22:43;;;;;;;8.80;5.47;;;12.50;99.90;;;;;;4110975;28;20161;-73
2021/10/30 08:24:46;;;;;;;6.03;4.75;;;12.50;99.90;;;;;;4121377;28;20617;-74
2021/10/30 08:26:46;;;;;;;7.00;5.38;;;12.50;99.90;;;;;;4119058;28;20030;-74
2021/10/30 08:28:48;;;;;;;11.57;5.20;;;12.50;99.90;;;;;;4120962;28;20037;-74
2021/10/30 08:30:48;;;;;;;10.85;5.38;;;12.50;99.90;;;;;;4119952;28;20038;-74
2021/10/30 08:32:49;;;;;;;11.93;5.65;;;12.50;99.90;;;;;;4120926;28;20050;-74
2021/10/30 08:34:50;;;;;;;7.22;4.93;;;12.40;99.90;;;;;;4117278;28;20505;-73
2021/10/30 08:36:50;;;;;;;14.38;5.97;;;12.50;99.90;;;;;;4121185;28;20100;-74
2021/10/30 08:38:51;;;;;;;8.75;5.30;;;12.50;99.90;;;;;;4122336;28;20034;-74
2021/10/30 08:40:53;;;;;;;9.30;5.70;;;12.50;99.90;;;;;;4118057;28;22258;-74
2021/10/30 08:42:53;;;;;;;7.60;5.25;;;12.50;99.90;;;;;;4121110;28;20449;-74
2021/10/30 08:44:56;;;;;;;7.95;5.18;;;12.50;99.90;;;;;;4118536;28;20073;-74
2021/10/30 08:47:00;;;;;;;6.32;4.95;;;12.50;99.90;;;;;;4119700;28;20053;-73
2021/10/30 08:49:02;;;;;;;9.35;5.13;;;12.50;99.90;;;;;;4120253;28;20026;-73
2021/10/30 08:51:04;;;;;;;6.70;4.88;;;12.50;99.90;;;;;;4118420;28;20054;-74
2021/10/30 08:53:05;;;;;;;6.97;5.05;;;12.60;99.90;;;;;;4121813;28;20109;-74
2021/10/30 08:55:07;;;;;;;9.18;5.50;;;12.60;99.90;;;;;;4121127;28;20068;-74
2021/10/30 08:57:08;;;;;;;8.80;5.13;;;12.60;99.90;;;;;;4118863;28;20026;-74
2021/10/30 08:59:10;;;;;;;7.45;5.15;;;12.60;99.90;;;;;;4118527;28;20106;-74
2021/10/30 09:01:11;;;;;;;9.83;5.20;;;12.70;99.90;;;;;;4100917;28;20118;-74
2021/10/30 09:03:13;;;;;;;8.25;4.50;;;12.60;99.90;;;;;;4117039;28;20057;-74
2021/10/30 09:05:20;;;;;;;9.75;5.03;;;12.60;99.90;;;;;;4121242;28;20108;-74
2021/10/30 09:07:20;;;;;;;8.95;4.53;;;12.70;99.90;;;;;;4118846;28;20050;-74
2021/10/30 09:09:21;;;;;;;11.57;5.07;;;12.70;99.90;;;;;;4112289;28;20053;-74
2021/10/30 09:11:26;;;;;;;8.32;5.03;;;12.70;99.90;;;;;;4116802;28;22284;-74
2021/10/30 09:13:31;;;;;;;8.93;4.72;;;12.70;99.90;;;;;;4117850;28;20038;-74
2021/10/30 09:15:34;;;;;;;8.55;4.90;;;12.70;99.90;;;;;;4117651;28;20045;-74
2021/10/30 09:17:35;;;;;;;10.77;5.05;;;12.70;99.90;;;;;;4125266;28;20038;-74
2021/10/30 09:19:35;;;;;;;7.75;5.00;;;12.70;99.90;;;;;;4120168;28;20034;-74
2021/10/30 09:21:36;;;;;;;9.48;5.28;;;12.80;99.90;;;;;;4119007;28;20117;-74
2021/10/30 09:23:41;;;;;;;8.20;4.97;;;12.80;99.90;;;;;;4122135;28;22722;-74
2021/10/30 09:26:02;;;;;;;8.98;5.03;;;12.80;99.90;;;;;;4119125;28;20085;-74
2021/10/30 09:28:03;;;;;;;8.25;5.03;;;12.80;99.90;;;;;;4122459;28;20402;-74
2021/10/30 09:30:04;;;;;;;7.28;4.30;;;12.80;99.90;;;;;;4123029;28;20030;-74
2021/10/30 09:32:12;;;;;;;8.70;4.75;;;12.80;99.90;;;;;;4121888;28;20355;-74
2021/10/30 09:34:25;;;;;;;11.32;5.38;;;12.80;99.90;;;;;;4121282;28;20030;-74
2021/10/30 09:36:32;;;;;;;7.85;4.72;;;12.80;99.90;;;;;;4123337;28;20366;-75
2021/10/30 09:38:35;;;;;;;7.22;4.55;;;12.80;99.90;;;;;;4120202;28;20038;-75
2021/10/30 09:40:36;;;;;;;7.55;4.95;;;12.90;99.90;;;;;;4122372;28;20038;-75
2021/10/30 09:42:36;;;;;;;7.97;4.80;;;12.90;99.90;;;;;;4118701;28;20042;-75
2021/10/30 09:44:37;;;;;;;8.65;4.60;;;12.90;99.90;;;;;;4121783;28;20481;-74
2021/10/30 09:46:43;;;;;;;8.75;4.68;;;12.80;99.90;;;;;;4121595;28;20506;-74
2021/10/30 09:48:44;;;;;;;7.15;4.30;;;12.80;99.90;;;;;;4121695;28;20030;-74
2021/10/30 09:50:45;;;;;;;6.40;4.18;;;12.90;99.90;;;;;;4118772;28;20085;-74
2021/10/30 09:52:45;;;;;;;8.82;3.85;;;12.90;99.90;;;;;;4124089;28;20088;-74
2021/10/30 09:54:47;;;;;;;5.60;3.65;;;12.90;99.90;;;;;;4127676;28;20033;-74
2021/10/30 09:56:49;;;;;;;9.52;4.55;;;12.90;99.90;;;;;;4125727;28;20033;-74
2021/10/30 09:58:50;;;;;;;;;;;12.90;99.90;;;;;;4126240;28;20030;-74
2021/10/30 10:00:51;;;;;;;9.50;3.97;;;12.90;99.90;;;;;;4124392;28;19925;-74
2021/10/30 10:03:00;;;;;;;8.88;3.72;;;13.00;99.90;;;;;;4123564;28;20041;-74
2021/10/30 10:05:03;;;;;;;7.03;4.22;;;13.00;99.90;;;;;;4122842;28;20041;-74
2021/10/30 10:07:04;;;;;;;;;;;13.00;99.90;;;;;;4122969;28;20034;-74
2021/10/30 10:09:05;;;;;;;6.57;4.28;;;13.00;99.90;;;;;;4123842;28;20407;-74
2021/10/30 10:11:08;;;;;;;9.15;5.10;;;13.00;99.90;;;;;;4122910;28;20311;-74
2021/10/30 10:13:09;;;;;;;7.63;4.82;;;13.10;99.90;;;;;;4121934;28;20061;-74
2021/10/30 10:15:12;;;;;;;7.10;5.00;;;13.10;99.90;;;;;;4120595;28;20129;-74
2021/10/30 10:17:13;;;;;;;12.40;5.90;;;13.10;99.90;;;;;;4118518;28;20121;-74
2021/10/30 10:19:15;;;;;;;9.18;6.00;;;13.10;99.90;;;;;;4123066;28;20030;-74
2021/10/30 10:21:18;;;;;;;12.05;5.78;;;13.10;99.90;;;;;;4120903;28;20036;-74
2021/10/30 10:23:20;;;;;;;9.23;6.00;;;13.10;99.90;;;;;;4121359;28;20524;-74
2021/10/30 10:25:28;;;;;;;10.95;6.55;;;13.10;99.90;;;;;;4123724;28;20035;-75
2021/10/30 10:27:36;;;;;;;8.82;5.28;;;13.10;99.90;;;;;;4118643;28;20580;-74
2021/10/30 10:29:53;;;;;;;11.00;5.43;;;13.10;99.90;;;;;;4121247;28;20610;-74
2021/10/30 10:31:54;;;;;;;12.05;5.38;;;13.10;99.90;;;;;;4117314;28;20656;-74
2021/10/30 10:34:11;;;;;;;7.22;4.53;;;13.10;99.90;;;;;;4121530;28;20031;-74
2021/10/30 10:36:19;;;;;;;7.03;4.43;;;13.10;99.90;;;;;;4122768;28;20275;-75